createdAt,value
2018-03-28T00:02:08.803Z,51.92
2018-03-28T00:04:36.324Z,45.80
2018-03-28T00:07:03.891Z,49.33
2018-03-28T00:09:31.409Z,47.22
2018-03-28T00:11:58.946Z,43.47
2018-03-28T00:14:26.481Z,56.00
2018-03-28T00:16:53.998Z,56.33
2018-03-28T00:19:21.540Z,49.38
2018-03-28T00:21:49.122Z,48.63
2018-03-28T00:24:16.651Z,59.00
2018-03-28T00:26:44.190Z,63.10
2018-03-28T00:29:11.711Z,67.00
2018-03-28T00:31:39.246Z,68.12
2018-03-28T00:34:06.770Z,67.65
2018-03-28T00:36:34.293Z,65.60
2018-03-28T00:39:01.838Z,71.03
2018-03-28T00:41:29.356Z,64.18
2018-03-28T00:43:56.876Z,64.57
2018-03-28T00:46:25.279Z,64.85
2018-03-28T00:48:52.796Z,57.95
2018-03-28T00:51:32.157Z,55.90
2018-03-28T00:53:59.694Z,54.95
2018-03-28T00:56:27.219Z,65.32
2018-03-28T00:58:54.743Z,58.83
2018-03-28T01:01:22.259Z,67.18
2018-03-28T01:03:49.778Z,69.15
2018-03-28T01:06:20.130Z,63.58
2018-03-28T01:08:47.642Z,53.80
2018-03-28T01:11:15.157Z,55.05
2018-03-28T01:13:42.679Z,48.55
2018-03-28T01:16:10.279Z,37.10
2018-03-28T01:18:37.820Z,36.97
2018-03-28T01:21:05.338Z,34.55
2018-03-28T01:23:32.875Z,35.60
2018-03-28T01:26:00.451Z,34.60
2018-03-28T01:28:27.971Z,32.13
2018-03-28T01:30:55.514Z,34.67
2018-03-28T01:33:23.023Z,35.30
2018-03-28T01:35:50.535Z,32.17
2018-03-28T01:38:18.051Z,34.38
2018-03-28T01:40:45.565Z,36.03
2018-03-28T01:43:13.117Z,36.92
2018-03-28T01:45:40.632Z,35.28
2018-03-28T01:48:08.153Z,37.85
2018-03-28T01:50:35.675Z,38.72
2018-03-28T01:53:03.198Z,37.42
2018-03-28T01:55:30.747Z,34.35
2018-03-28T01:57:58.267Z,36.58
2018-03-28T02:00:25.814Z,34.47
2018-03-28T02:02:53.335Z,33.63
2018-03-28T02:05:20.886Z,32.90
2018-03-28T02:07:48.399Z,34.17
2018-03-28T02:10:15.911Z,34.60
2018-03-28T02:12:43.438Z,33.05
2018-03-28T02:15:10.958Z,38.25
2018-03-28T02:17:38.480Z,34.53
2018-03-28T02:20:06.011Z,33.97
2018-03-28T02:22:33.551Z,33.83
2018-03-28T02:25:01.092Z,35.28
2018-03-28T02:27:28.611Z,35.55
2018-03-28T02:29:56.138Z,33.58
2018-03-28T02:32:23.657Z,34.53
2018-03-28T02:34:51.178Z,39.67
2018-03-28T02:37:18.718Z,39.85
2018-03-28T02:39:46.311Z,41.40
2018-03-28T02:42:13.827Z,37.85
2018-03-28T02:44:41.349Z,36.97
2018-03-28T02:47:08.928Z,36.40
2018-03-28T02:49:36.472Z,30.30
2018-03-28T02:52:03.999Z,29.52
2018-03-28T02:54:31.523Z,30.25
2018-03-28T02:56:59.052Z,31.25
2018-03-28T02:59:26.570Z,35.75
2018-03-28T03:01:54.120Z,34.83
2018-03-28T03:04:21.639Z,35.75
2018-03-28T03:06:49.158Z,32.75
2018-03-28T03:09:16.678Z,34.65
2018-03-28T03:11:44.186Z,32.00
2018-03-28T03:14:11.725Z,29.45
2018-03-28T03:16:39.248Z,46.08
2018-03-28T03:19:06.769Z,49.55
2018-03-28T03:21:34.294Z,47.62
2018-03-28T03:24:01.816Z,44.08
2018-03-28T03:26:29.367Z,37.15
2018-03-28T03:28:56.882Z,35.30
2018-03-28T03:31:24.416Z,32.75
2018-03-28T03:33:51.940Z,35.72
2018-03-28T03:36:19.467Z,31.83
2018-03-28T03:38:46.991Z,30.88
2018-03-28T03:41:14.506Z,30.40
2018-03-28T03:43:42.067Z,29.73
2018-03-28T03:46:09.691Z,33.47
2018-03-28T03:48:37.206Z,28.55
2018-03-28T03:51:04.720Z,26.60
2018-03-28T03:53:32.239Z,28.98
2018-03-28T03:55:59.783Z,30.75
2018-03-28T03:58:27.318Z,31.87
2018-03-28T04:00:54.888Z,30.98
2018-03-28T04:03:22.398Z,28.45
2018-03-28T04:05:49.925Z,29.20
2018-03-28T04:08:17.781Z,31.48
2018-03-28T04:10:45.298Z,29.48
2018-03-28T04:13:12.823Z,32.30
2018-03-28T04:15:40.339Z,28.08
2018-03-28T04:18:07.858Z,30.98
2018-03-28T04:20:35.390Z,31.35
2018-03-28T04:23:02.908Z,32.13
2018-03-28T04:25:30.437Z,32.97
2018-03-28T04:27:57.987Z,32.83
2018-03-28T04:30:25.519Z,29.37
2018-03-28T04:32:53.047Z,28.95
2018-03-28T04:35:20.599Z,29.70
2018-03-28T04:37:48.127Z,29.77
2018-03-28T04:40:15.648Z,30.98
2018-03-28T04:42:43.180Z,33.30
2018-03-28T04:45:10.730Z,29.02
2018-03-28T04:47:38.263Z,29.73
2018-03-28T04:50:05.782Z,31.65
2018-03-28T04:52:33.299Z,34.03
2018-03-28T04:55:00.823Z,34.47
2018-03-28T04:57:28.349Z,35.58
2018-03-28T04:59:55.900Z,35.10
2018-03-28T05:02:23.430Z,36.63
2018-03-28T05:04:50.947Z,33.75
2018-03-28T05:07:18.487Z,35.92
2018-03-28T05:09:45.998Z,39.22
2018-03-28T05:12:13.536Z,39.05
2018-03-28T05:14:41.082Z,40.05
2018-03-28T05:17:08.610Z,36.50
2018-03-28T05:19:36.135Z,41.20
2018-03-28T05:22:03.663Z,34.38
2018-03-28T05:24:31.209Z,36.00
2018-03-28T05:26:58.759Z,38.60
2018-03-28T05:29:26.312Z,39.30
2018-03-28T05:31:53.963Z,34.93
2018-03-28T05:34:21.489Z,34.93
2018-03-28T05:36:49.035Z,30.87
2018-03-28T05:39:16.555Z,32.50
2018-03-28T05:41:44.082Z,33.20
2018-03-28T05:44:11.632Z,32.97
2018-03-28T05:46:39.151Z,36.07
2018-03-28T05:49:06.668Z,29.77
2018-03-28T05:51:34.194Z,31.57
2018-03-28T05:54:01.716Z,38.97
2018-03-28T05:56:29.298Z,34.97
2018-03-28T05:58:56.830Z,34.20
2018-03-28T06:01:24.365Z,33.43
2018-03-28T06:03:51.922Z,32.37
2018-03-28T06:06:19.447Z,28.83
2018-03-28T06:08:46.991Z,34.83
2018-03-28T06:11:14.511Z,27.33
2018-03-28T06:13:42.068Z,29.10
2018-03-28T06:16:09.648Z,29.50
2018-03-28T06:18:37.170Z,27.30
2018-03-28T06:21:04.705Z,24.70
2018-03-28T06:23:32.232Z,23.27
2018-03-28T06:25:59.772Z,22.00
2018-03-28T06:28:27.286Z,22.27
2018-03-28T06:30:55.109Z,23.13
2018-03-28T06:33:22.640Z,22.77
2018-03-28T06:35:50.205Z,20.87
2018-03-28T06:38:17.728Z,20.80
2018-03-28T06:40:45.248Z,21.57
2018-03-28T06:43:12.801Z,22.00
2018-03-28T06:45:40.324Z,22.27
2018-03-28T06:48:07.843Z,22.77
2018-03-28T06:50:35.366Z,22.37
2018-03-28T06:53:02.908Z,25.93
2018-03-28T06:55:30.462Z,22.47
2018-03-28T06:57:57.978Z,24.50
2018-03-28T07:00:25.544Z,23.47
2018-03-28T07:02:53.063Z,24.77
2018-03-28T07:05:20.618Z,22.47
2018-03-28T07:07:48.144Z,24.47
2018-03-28T07:10:15.662Z,22.93
2018-03-28T07:12:43.185Z,21.73
2018-03-28T07:15:10.712Z,23.27
2018-03-28T07:17:38.258Z,25.57
2018-03-28T07:20:05.775Z,21.67
2018-03-28T07:22:33.298Z,22.43
2018-03-28T07:25:00.827Z,21.57
2018-03-28T07:27:28.368Z,22.93
2018-03-28T07:29:55.920Z,22.20
2018-03-28T07:32:23.434Z,19.97
2018-03-28T07:34:50.956Z,20.80
2018-03-28T07:37:18.475Z,20.37
2018-03-28T07:39:45.990Z,21.30
2018-03-28T07:42:13.543Z,24.60
2018-03-28T07:44:41.067Z,22.07
2018-03-28T07:47:08.590Z,22.13
2018-03-28T07:49:36.119Z,19.30
2018-03-28T07:52:03.639Z,18.93
2018-03-28T07:54:31.211Z,19.70
2018-03-28T07:56:58.731Z,20.67
2018-03-28T07:59:26.247Z,20.17
2018-03-28T08:01:53.799Z,25.17
2018-03-28T08:04:21.326Z,21.83
2018-03-28T08:06:48.856Z,23.33
2018-03-28T08:09:16.383Z,20.80
2018-03-28T08:11:43.928Z,20.40
2018-03-28T08:14:11.447Z,19.50
2018-03-28T08:16:39.012Z,20.47
2018-03-28T08:19:06.554Z,17.83
2018-03-28T08:21:34.117Z,19.10
2018-03-28T08:24:01.652Z,20.60
2018-03-28T08:26:29.177Z,25.87
2018-03-28T08:28:56.702Z,18.87
2018-03-28T08:31:24.222Z,20.40
2018-03-28T08:33:51.746Z,17.33
2018-03-28T08:39:39.894Z,19.17
2018-03-28T08:42:19.860Z,18.73
2018-03-28T08:44:47.383Z,18.63
2018-03-28T08:47:14.904Z,19.50
2018-03-28T08:49:42.428Z,18.93
2018-03-28T08:52:09.947Z,22.17
2018-03-28T08:54:37.503Z,17.63
2018-03-28T08:57:05.029Z,19.20
2018-03-28T08:59:32.551Z,17.67
2018-03-28T09:02:00.135Z,18.20
2018-03-28T09:04:27.666Z,17.93
2018-03-28T09:06:55.231Z,19.07
2018-03-28T09:09:22.755Z,17.87
2018-03-28T09:11:50.275Z,17.63
2018-03-28T09:14:17.795Z,18.47
2018-03-28T09:16:45.325Z,18.17
2018-03-28T09:19:12.932Z,18.30
2018-03-28T09:21:40.428Z,19.40
2018-03-28T09:24:07.948Z,18.47
2018-03-28T09:26:35.518Z,19.37
2018-03-28T09:29:03.042Z,19.37
2018-03-28T09:31:30.639Z,19.97
2018-03-28T09:33:58.165Z,18.73
2018-03-28T09:36:25.705Z,20.60
2018-03-28T09:38:53.228Z,19.87
2018-03-28T09:41:20.747Z,18.00
2018-03-28T09:43:48.296Z,17.77
2018-03-28T09:46:15.820Z,18.17
2018-03-28T09:48:43.338Z,18.70
2018-03-28T09:51:10.882Z,17.47
2018-03-28T09:53:38.403Z,16.50
2018-03-28T09:56:06.334Z,15.27
2018-03-28T09:58:33.818Z,15.17
2018-03-28T10:01:06.884Z,14.43
2018-03-28T10:03:34.442Z,14.10
2018-03-28T10:06:01.955Z,16.53
2018-03-28T10:08:29.477Z,16.07
2018-03-28T10:10:57.009Z,16.33
2018-03-28T10:13:24.561Z,15.77
2018-03-28T10:15:52.075Z,15.07
2018-03-28T10:18:19.599Z,15.60
2018-03-28T10:20:47.116Z,13.77
2018-03-28T10:23:14.629Z,14.97
2018-03-28T10:25:42.180Z,19.87
2018-03-28T10:28:09.699Z,16.80
2018-03-28T10:30:37.247Z,17.03
2018-03-28T10:33:04.762Z,15.50
2018-03-28T10:35:32.289Z,14.67
2018-03-28T10:37:59.816Z,15.10
2018-03-28T10:40:27.365Z,14.10
2018-03-28T10:42:54.925Z,15.13
2018-03-28T10:45:22.456Z,14.77
2018-03-28T10:47:49.978Z,16.83
2018-03-28T10:50:17.500Z,16.23
2018-03-28T10:52:45.027Z,16.77
2018-03-28T10:55:12.579Z,15.80
2018-03-28T10:57:40.107Z,18.03
2018-03-28T11:00:08.012Z,16.57
2018-03-28T11:02:35.539Z,16.70
2018-03-28T11:05:03.058Z,16.93
2018-03-28T11:07:30.592Z,16.43
2018-03-28T11:09:58.124Z,17.90
2018-03-28T11:12:25.692Z,16.73
2018-03-28T11:14:53.217Z,18.03
2018-03-28T11:17:20.739Z,19.63
2018-03-28T11:19:48.264Z,16.87
2018-03-28T11:22:15.800Z,17.07
2018-03-28T11:24:43.351Z,19.07
2018-03-28T11:27:10.880Z,16.60
2018-03-28T11:29:38.406Z,17.60
2018-03-28T11:32:05.949Z,17.13
2018-03-28T11:34:33.486Z,18.20
2018-03-28T11:37:01.003Z,18.50
2018-03-28T11:39:28.527Z,18.27
2018-03-28T11:41:56.044Z,17.50
2018-03-28T11:44:23.563Z,18.17
2018-03-28T11:46:51.079Z,18.63
2018-03-28T11:49:18.616Z,16.30
2018-03-28T11:51:46.167Z,17.00
2018-03-28T11:54:13.691Z,17.90
2018-03-28T11:56:41.234Z,16.80
2018-03-28T11:59:08.762Z,16.30
2018-03-28T12:01:36.307Z,15.93
2018-03-28T12:04:03.855Z,16.87
2018-03-28T12:06:31.382Z,19.20
2018-03-28T12:08:58.907Z,15.97
2018-03-28T12:11:26.427Z,21.30
2018-03-28T12:13:53.972Z,15.60
2018-03-28T12:16:21.786Z,16.00
2018-03-28T12:18:49.307Z,16.20
2018-03-28T12:21:16.839Z,19.93
2018-03-28T12:23:44.361Z,13.03
2018-03-28T12:26:11.970Z,16.87
2018-03-28T12:28:39.505Z,16.53
2018-03-28T12:31:07.047Z,14.37
2018-03-28T12:33:34.566Z,14.20
2018-03-28T12:36:02.091Z,12.77
2018-03-28T12:38:29.617Z,16.90
2018-03-28T12:40:57.140Z,14.23
2018-03-28T12:43:24.682Z,14.40
2018-03-28T12:45:52.259Z,19.47
2018-03-28T12:48:19.748Z,15.27
2018-03-28T12:50:47.271Z,14.40
2018-03-28T12:53:14.834Z,14.80
2018-03-28T12:55:42.357Z,13.50
2018-03-28T12:58:09.892Z,13.53
2018-03-28T13:00:37.438Z,13.07
2018-03-28T13:03:04.956Z,16.13
2018-03-28T13:05:32.476Z,13.10
2018-03-28T13:08:00.027Z,14.90
2018-03-28T13:10:27.551Z,17.17
2018-03-28T13:12:55.091Z,19.13
2018-03-28T13:15:22.616Z,13.17
2018-03-28T13:17:50.131Z,12.90
2018-03-28T13:20:17.656Z,12.30
2018-03-28T13:22:45.192Z,13.10
2018-03-28T13:25:12.754Z,12.03
2018-03-28T13:27:40.271Z,13.53
2018-03-28T13:30:07.918Z,14.40
2018-03-28T13:32:35.440Z,14.17
2018-03-28T13:35:02.963Z,12.50
2018-03-28T13:37:30.482Z,14.53
2018-03-28T13:39:57.999Z,14.40
2018-03-28T13:42:25.546Z,13.93
2018-03-28T13:44:53.067Z,16.20
2018-03-28T13:47:20.588Z,12.57
2018-03-28T13:49:48.116Z,14.20
2018-03-28T13:52:16.422Z,13.00
2018-03-28T13:54:43.976Z,13.67
2018-03-28T13:57:11.494Z,13.03
2018-03-28T13:59:39.038Z,20.53
2018-03-28T14:02:06.558Z,11.53
2018-03-28T14:04:34.083Z,13.53
2018-03-28T14:07:01.643Z,13.93
2018-03-28T14:09:29.186Z,13.67
2018-03-28T14:11:56.708Z,16.57
2018-03-28T14:14:24.222Z,11.77
2018-03-28T14:16:51.746Z,11.77
2018-03-28T14:19:19.304Z,11.43
2018-03-28T14:21:46.906Z,14.20
2018-03-28T14:24:14.390Z,13.03
2018-03-28T14:26:41.911Z,13.47
2018-03-28T14:29:09.444Z,13.60
2018-03-28T14:31:36.998Z,11.50
2018-03-28T14:34:04.576Z,12.60
2018-03-28T14:36:32.095Z,11.50
2018-03-28T14:38:59.615Z,13.17
2018-03-28T14:41:27.134Z,11.90
2018-03-28T14:43:54.677Z,11.03
2018-03-28T14:46:22.196Z,10.73
2018-03-28T14:48:50.042Z,12.47
2018-03-28T14:51:17.559Z,11.40
2018-03-28T14:53:45.107Z,12.17
2018-03-28T14:56:12.654Z,10.97
2018-03-28T14:58:40.238Z,11.37
2018-03-28T15:01:07.779Z,13.33
2018-03-28T15:03:35.314Z,20.33
2018-03-28T15:06:02.839Z,13.97
2018-03-28T15:08:30.356Z,11.80
2018-03-28T15:10:57.883Z,13.73
2018-03-28T15:13:25.424Z,15.53
2018-03-28T15:15:53.658Z,17.60
2018-03-28T15:18:25.125Z,13.43
2018-03-28T15:20:52.724Z,13.43
2018-03-28T15:23:20.242Z,18.77
2018-03-28T15:25:47.763Z,11.87
2018-03-28T15:28:15.282Z,13.93
2018-03-28T15:30:42.834Z,20.30
2018-03-28T15:33:10.367Z,17.13
2018-03-28T15:35:37.906Z,18.27
2018-03-28T15:38:05.475Z,14.70
2018-03-28T15:40:33.003Z,14.67
2018-03-28T15:43:00.568Z,17.03
2018-03-28T15:45:28.120Z,13.20
2018-03-28T15:47:55.636Z,17.33
2018-03-28T15:50:23.169Z,13.90
2018-03-28T15:52:50.685Z,12.37
2018-03-28T15:55:18.219Z,12.47
2018-03-28T15:57:45.782Z,11.73
2018-03-28T16:00:13.404Z,12.87
2018-03-28T16:02:40.962Z,12.30
2018-03-28T16:05:08.491Z,11.73
2018-03-28T16:07:36.038Z,12.67
2018-03-28T16:10:03.562Z,11.77
2018-03-28T16:12:31.083Z,11.57
2018-03-28T16:14:58.605Z,12.70
2018-03-28T16:17:26.143Z,13.90
2018-03-28T16:19:53.673Z,19.40
2018-03-28T16:22:21.198Z,13.87
2018-03-28T16:24:48.743Z,17.37
2018-03-28T16:27:16.280Z,16.10
2018-03-28T16:29:43.815Z,17.77
2018-03-28T16:32:11.392Z,24.73
2018-03-28T16:34:39.318Z,20.40
2018-03-28T16:37:06.880Z,19.27
2018-03-28T16:39:34.413Z,27.63
2018-03-28T16:42:02.267Z,29.30
2018-03-28T16:44:29.790Z,22.33
2018-03-28T16:46:57.355Z,20.70
2018-03-28T16:49:24.887Z,17.00
2018-03-28T16:51:52.467Z,21.17
2018-03-28T16:54:19.983Z,18.47
2018-03-28T16:56:47.516Z,22.80
2018-03-28T16:59:15.046Z,22.23
2018-03-28T17:01:42.594Z,24.53
2018-03-28T17:04:10.112Z,19.63
2018-03-28T17:06:37.627Z,19.10
2018-03-28T17:09:06.063Z,21.37
2018-03-28T17:11:33.619Z,23.17
2018-03-28T17:14:01.222Z,26.53
2018-03-28T17:16:28.714Z,32.57
2018-03-28T17:18:56.260Z,30.20
2018-03-28T17:21:23.882Z,50.53
2018-03-28T17:23:51.412Z,37.67
2018-03-28T17:26:18.928Z,34.67
2018-03-28T17:28:46.491Z,37.27
2018-03-28T17:31:14.044Z,35.77
2018-03-28T17:33:41.565Z,43.60
2018-03-28T17:36:09.090Z,36.50
2018-03-28T17:38:36.639Z,34.93
2018-03-28T17:41:04.162Z,31.43
2018-03-28T17:43:31.695Z,35.53
2018-03-28T17:45:59.226Z,32.77
2018-03-28T17:48:26.747Z,40.07
2018-03-28T17:50:54.263Z,36.00
2018-03-28T17:53:21.816Z,38.80
2018-03-28T17:55:49.370Z,49.07
2018-03-28T17:58:16.909Z,39.07
2018-03-28T18:00:44.450Z,56.70
2018-03-28T18:03:11.968Z,47.27
2018-03-28T18:05:39.486Z,42.53
2018-03-28T18:08:07.039Z,39.37
2018-03-28T18:10:34.559Z,51.80
2018-03-28T18:13:02.077Z,47.10
2018-03-28T18:15:29.632Z,43.70
2018-03-28T18:17:57.151Z,44.70
2018-03-28T18:20:24.671Z,42.13
2018-03-28T18:22:52.219Z,49.00
2018-03-28T18:25:19.748Z,254.23
2018-03-28T18:27:47.263Z,82.90
2018-03-28T18:30:14.827Z,52.30
2018-03-28T18:32:42.354Z,51.17
2018-03-28T18:35:09.926Z,56.47
2018-03-28T18:37:37.427Z,78.87
2018-03-28T18:40:04.948Z,85.03
2018-03-28T18:42:33.275Z,90.27
2018-03-28T18:45:00.797Z,72.80
2018-03-28T18:47:28.326Z,68.83
2018-03-28T18:49:55.846Z,66.67
2018-03-28T18:52:23.369Z,68.00
2018-03-28T18:54:50.903Z,66.30
2018-03-28T18:57:18.495Z,63.57
2018-03-28T18:59:46.039Z,58.57
2018-03-28T19:02:13.851Z,69.30
2018-03-28T19:04:41.415Z,68.43
2018-03-28T19:07:08.978Z,65.63
2018-03-28T19:09:36.599Z,70.90
2018-03-28T19:12:04.189Z,59.00
2018-03-28T19:14:31.765Z,69.00
2018-03-28T19:16:59.331Z,57.13
2018-03-28T19:19:26.927Z,60.53
2018-03-28T19:21:54.463Z,56.83
2018-03-28T19:24:21.998Z,55.10
2018-03-28T19:26:49.534Z,53.35
2018-03-28T19:29:17.059Z,49.53
2018-03-28T19:31:44.673Z,64.30
2018-03-28T19:34:12.211Z,64.10
2018-03-28T19:36:39.775Z,57.58
2018-03-28T19:39:07.355Z,52.70
2018-03-28T19:41:34.915Z,56.33
2018-03-28T19:44:02.505Z,52.17
2018-03-28T19:46:30.057Z,57.87
2018-03-28T19:48:57.626Z,56.20
2018-03-28T19:51:25.161Z,62.30
2018-03-28T19:53:53.594Z,62.38
2018-03-28T19:56:21.167Z,62.85
2018-03-28T19:58:48.722Z,66.65
2018-03-28T20:01:16.282Z,65.23
2018-03-28T20:03:43.839Z,67.37
2018-03-28T20:06:11.389Z,66.65
2018-03-28T20:08:38.975Z,63.20
2018-03-28T20:11:06.511Z,70.12
2018-03-28T20:13:34.061Z,64.40
2018-03-28T20:16:01.599Z,61.47
2018-03-28T20:18:29.152Z,56.72
2018-03-28T20:20:56.711Z,51.95
2018-03-28T20:23:24.235Z,77.50
2018-03-28T20:25:51.768Z,47.60
2018-03-28T20:28:19.327Z,54.00
2018-03-28T20:30:47.123Z,59.67
2018-03-28T20:33:14.649Z,55.83
2018-03-28T20:35:42.195Z,54.72
2018-03-28T20:38:09.945Z,52.15
2018-03-28T20:40:37.470Z,70.87
2018-03-28T20:43:05.070Z,70.87
2018-03-28T20:45:32.587Z,66.47
2018-03-28T20:48:00.135Z,70.65
2018-03-28T20:50:27.660Z,91.03
2018-03-28T20:52:55.180Z,91.47
2018-03-28T20:55:22.698Z,95.05
2018-03-28T20:57:50.243Z,92.65
2018-03-28T21:00:17.829Z,93.15
2018-03-28T21:02:45.355Z,95.80
2018-03-28T21:05:12.890Z,104.28
2018-03-28T21:07:44.289Z,106.95
2018-03-28T21:10:11.843Z,103.00
2018-03-28T21:12:39.403Z,104.53
2018-03-28T21:15:06.942Z,97.55
2018-03-28T21:17:34.483Z,104.65
2018-03-28T21:20:02.784Z,104.07
2018-03-28T21:22:30.307Z,109.32
2018-03-28T21:24:57.850Z,94.25
2018-03-28T21:27:25.711Z,103.30
2018-03-28T21:29:53.243Z,106.47
2018-03-28T21:32:20.777Z,96.72
2018-03-28T21:34:48.292Z,85.05
2018-03-28T21:37:15.847Z,88.62
2018-03-28T21:39:43.394Z,95.12
2018-03-28T21:42:10.929Z,74.25
2018-03-28T21:44:38.462Z,75.95
2018-03-28T21:47:06.002Z,81.03
2018-03-28T21:49:33.812Z,74.62
2018-03-28T21:52:01.330Z,69.47
2018-03-28T21:54:28.838Z,75.35
2018-03-28T21:56:56.356Z,72.47
2018-03-28T21:59:23.870Z,94.03
2018-03-28T22:01:51.451Z,94.85
2018-03-28T22:04:18.971Z,105.28
2018-03-28T22:06:46.876Z,117.37
2018-03-28T22:09:14.398Z,90.05
2018-03-28T22:11:41.914Z,109.15
2018-03-28T22:14:09.459Z,98.55
2018-03-28T22:16:36.976Z,94.35
2018-03-28T22:19:04.759Z,89.40
2018-03-28T22:21:32.281Z,87.72
2018-03-28T22:23:59.799Z,86.05
2018-03-28T22:26:27.352Z,90.15
2018-03-28T22:28:55.677Z,135.15
2018-03-28T22:31:23.224Z,124.82
2018-03-28T22:33:50.746Z,119.78
2018-03-28T22:36:18.268Z,139.88
2018-03-28T22:38:45.791Z,127.78
2018-03-28T22:41:13.326Z,124.30
2018-03-28T22:43:40.883Z,123.90
2018-03-28T22:46:08.414Z,127.53
2018-03-28T22:48:35.995Z,132.65
2018-03-28T22:51:03.518Z,131.27
2018-03-28T22:53:31.034Z,140.40
2018-03-28T22:55:58.848Z,153.15
2018-03-28T22:58:26.386Z,141.40
2018-03-28T23:00:55.207Z,128.52
2018-03-28T23:03:22.966Z,133.82
2018-03-28T23:05:50.495Z,181.43
2018-03-28T23:08:18.066Z,242.93
2018-03-28T23:10:46.408Z,244.30
2018-03-28T23:13:14.035Z,217.87
2018-03-28T23:15:41.574Z,234.25
2018-03-28T23:18:09.104Z,231.27
2018-03-28T23:20:37.354Z,193.80
2018-03-28T23:23:04.906Z,203.10
2018-03-28T23:25:32.459Z,173.48
2018-03-28T23:27:59.999Z,155.40
2018-03-28T23:30:27.559Z,135.40
2018-03-28T23:32:55.080Z,127.25
2018-03-28T23:35:22.650Z,111.25
2018-03-28T23:37:50.184Z,72.05
2018-03-28T23:40:17.707Z,160.37
2018-03-28T23:42:45.475Z,166.98
2018-03-28T23:45:12.995Z,164.20
2018-03-28T23:47:40.514Z,148.98
2018-03-28T23:50:08.064Z,168.68
2018-03-28T23:52:37.630Z,141.00
2018-03-28T23:55:05.163Z,142.25
2018-03-28T23:57:32.680Z,111.62
